Del Valle, Texas
Current Conditions -  °F | °C
As of 11:53 PM on Thursday 30 Oct 2014 (Local Time) from KAUS Reporting Station
Overcast Overcast  
Wind Chill: 66°   Ceiling: 6000
Heat Index: 66°   Visibility: 10mi
Dew Point: 61°   Wind: 0mph
Humidity: 84%   Direction: NA
Pressure: 30.11"   Gusts: NA
Location:  30.21°N, 97.66°W
Report Text: KAUS 310453Z 00000KT 10SM BKN060 OVC075 19/16 A3011 RMK AO2 SLP189 T01890161
Loading
Personal Weather Stations






























Interactive Weather Map
Tropical Storm Tracking
New forecast layout! Learn more

10-Day Weather Forecast

Advertisements
Track Severe Weather on mobile